sensor_id;sensor_type;location;lat;lon;timestamp;P1;durP1;ratioP1;P2;durP2;ratioP2
67861;SDS011;54665;51.462;6.698;2022-09-09T00:07:48;1.20;;;0.52;;
67861;SDS011;54665;51.462;6.698;2022-09-09T00:12:54;1.70;;;0.70;;
67861;SDS011;54665;51.462;6.698;2022-09-09T00:15:32;2.42;;;0.90;;
67861;SDS011;54665;51.462;6.698;2022-09-09T00:18:09;1.90;;;0.70;;
67861;SDS011;54665;51.462;6.698;2022-09-09T00:20:58;4.53;;;0.90;;
67861;SDS011;54665;51.462;6.698;2022-09-09T00:23:35;2.10;;;0.85;;
67861;SDS011;54665;51.462;6.698;2022-09-09T00:28:36;4.60;;;1.30;;
67861;SDS011;54665;51.462;6.698;2022-09-09T00:31:17;3.90;;;1.35;;
67861;SDS011;54665;51.462;6.698;2022-09-09T00:33:47;4.10;;;1.50;;
67861;SDS011;54665;51.462;6.698;2022-09-09T00:36:15;6.75;;;1.90;;
67861;SDS011;54665;51.462;6.698;2022-09-09T00:38:47;2.97;;;1.37;;
67861;SDS011;54665;51.462;6.698;2022-09-09T00:43:56;5.78;;;1.60;;
67861;SDS011;54665;51.462;6.698;2022-09-09T00:54:48;4.05;;;1.40;;
67861;SDS011;54665;51.462;6.698;2022-09-09T00:57:30;3.78;;;1.60;;
67861;SDS011;54665;51.462;6.698;2022-09-09T01:11:36;2.63;;;1.10;;
67861;SDS011;54665;51.462;6.698;2022-09-09T01:17:00;4.88;;;1.40;;
67861;SDS011;54665;51.462;6.698;2022-09-09T01:19:37;4.80;;;1.40;;
67861;SDS011;54665;51.462;6.698;2022-09-09T01:22:15;5.80;;;1.65;;
67861;SDS011;54665;51.462;6.698;2022-09-09T01:27:55;9.25;;;2.28;;
67861;SDS011;54665;51.462;6.698;2022-09-09T01:30:24;6.57;;;2.47;;
67861;SDS011;54665;51.462;6.698;2022-09-09T01:32:56;10.70;;;4.43;;
67861;SDS011;54665;51.462;6.698;2022-09-09T01:35:35;15.35;;;5.97;;
67861;SDS011;54665;51.462;6.698;2022-09-09T01:38:07;18.85;;;8.13;;
67861;SDS011;54665;51.462;6.698;2022-09-09T01:40:33;18.98;;;8.23;;
67861;SDS011;54665;51.462;6.698;2022-09-09T01:42:59;28.93;;;10.97;;
67861;SDS011;54665;51.462;6.698;2022-09-09T01:45:25;24.90;;;11.52;;
67861;SDS011;54665;51.462;6.698;2022-09-09T01:47:51;27.97;;;13.43;;
67861;SDS011;54665;51.462;6.698;2022-09-09T01:50:26;26.48;;;13.38;;
67861;SDS011;54665;51.462;6.698;2022-09-09T01:52:56;24.17;;;12.93;;
67861;SDS011;54665;51.462;6.698;2022-09-09T01:55:28;28.20;;;13.73;;
67861;SDS011;54665;51.462;6.698;2022-09-09T02:00:55;23.88;;;12.48;;
67861;SDS011;54665;51.462;6.698;2022-09-09T02:03:27;24.15;;;12.45;;
67861;SDS011;54665;51.462;6.698;2022-09-09T02:06:12;19.88;;;10.10;;
67861;SDS011;54665;51.462;6.698;2022-09-09T02:08:40;12.27;;;7.33;;
67861;SDS011;54665;51.462;6.698;2022-09-09T02:11:12;14.18;;;6.40;;
67861;SDS011;54665;51.462;6.698;2022-09-09T02:13:49;9.93;;;5.03;;
67861;SDS011;54665;51.462;6.698;2022-09-09T02:16:26;9.75;;;4.32;;
67861;SDS011;54665;51.462;6.698;2022-09-09T02:18:55;11.57;;;4.20;;
67861;SDS011;54665;51.462;6.698;2022-09-09T02:21:36;8.47;;;3.80;;
67861;SDS011;54665;51.462;6.698;2022-09-09T02:24:03;6.85;;;3.63;;
67861;SDS011;54665;51.462;6.698;2022-09-09T02:26:37;11.05;;;3.60;;
67861;SDS011;54665;51.462;6.698;2022-09-09T02:29:13;5.90;;;3.33;;
67861;SDS011;54665;51.462;6.698;2022-09-09T02:31:41;7.00;;;3.20;;
67861;SDS011;54665;51.462;6.698;2022-09-09T02:34:14;7.22;;;3.25;;
67861;SDS011;54665;51.462;6.698;2022-09-09T02:36:43;6.43;;;2.80;;
67861;SDS011;54665;51.462;6.698;2022-09-09T02:39:11;6.07;;;2.80;;
67861;SDS011;54665;51.462;6.698;2022-09-09T02:41:41;7.57;;;2.77;;
67861;SDS011;54665;51.462;6.698;2022-09-09T02:44:11;5.53;;;2.60;;
67861;SDS011;54665;51.462;6.698;2022-09-09T02:49:40;6.53;;;2.80;;
67861;SDS011;54665;51.462;6.698;2022-09-09T02:52:20;7.47;;;2.80;;
67861;SDS011;54665;51.462;6.698;2022-09-09T02:54:54;7.70;;;2.90;;
67861;SDS011;54665;51.462;6.698;2022-09-09T02:57:28;5.60;;;2.28;;
67861;SDS011;54665;51.462;6.698;2022-09-09T02:59:56;7.35;;;2.28;;
67861;SDS011;54665;51.462;6.698;2022-09-09T03:02:23;6.45;;;2.50;;
67861;SDS011;54665;51.462;6.698;2022-09-09T03:04:53;5.63;;;2.20;;
67861;SDS011;54665;51.462;6.698;2022-09-09T03:07:19;8.67;;;2.33;;
67861;SDS011;54665;51.462;6.698;2022-09-09T03:09:47;7.70;;;2.40;;
67861;SDS011;54665;51.462;6.698;2022-09-09T03:12:13;5.75;;;2.30;;
67861;SDS011;54665;51.462;6.698;2022-09-09T03:14:39;8.13;;;2.40;;
67861;SDS011;54665;51.462;6.698;2022-09-09T03:17:05;10.35;;;2.25;;
67861;SDS011;54665;51.462;6.698;2022-09-09T03:19:36;7.82;;;2.17;;
67861;SDS011;54665;51.462;6.698;2022-09-09T03:22:03;10.07;;;2.47;;
67861;SDS011;54665;51.462;6.698;2022-09-09T03:24:31;3.58;;;2.25;;
67861;SDS011;54665;51.462;6.698;2022-09-09T03:26:57;7.53;;;2.43;;
67861;SDS011;54665;51.462;6.698;2022-09-09T03:29:22;6.72;;;2.40;;
67861;SDS011;54665;51.462;6.698;2022-09-09T03:31:50;10.10;;;2.55;;
67861;SDS011;54665;51.462;6.698;2022-09-09T03:34:16;8.63;;;2.40;;
67861;SDS011;54665;51.462;6.698;2022-09-09T03:36:42;7.80;;;2.30;;
67861;SDS011;54665;51.462;6.698;2022-09-09T03:39:08;8.10;;;2.40;;
67861;SDS011;54665;51.462;6.698;2022-09-09T03:41:35;6.30;;;2.13;;
67861;SDS011;54665;51.462;6.698;2022-09-09T03:44:03;5.88;;;2.00;;
67861;SDS011;54665;51.462;6.698;2022-09-09T03:46:33;7.43;;;2.30;;
67861;SDS011;54665;51.462;6.698;2022-09-09T03:48:59;6.27;;;2.20;;
67861;SDS011;54665;51.462;6.698;2022-09-09T03:51:25;7.55;;;2.10;;
67861;SDS011;54665;51.462;6.698;2022-09-09T03:53:50;5.33;;;1.90;;
67861;SDS011;54665;51.462;6.698;2022-09-09T03:56:16;6.37;;;2.30;;
67861;SDS011;54665;51.462;6.698;2022-09-09T03:58:41;7.53;;;2.20;;
67861;SDS011;54665;51.462;6.698;2022-09-09T04:01:10;8.77;;;2.38;;
67861;SDS011;54665;51.462;6.698;2022-09-09T04:03:42;4.50;;;1.95;;
67861;SDS011;54665;51.462;6.698;2022-09-09T04:06:10;7.85;;;2.20;;
67861;SDS011;54665;51.462;6.698;2022-09-09T04:08:37;9.87;;;4.40;;
67861;SDS011;54665;51.462;6.698;2022-09-09T04:11:03;9.13;;;3.53;;
67861;SDS011;54665;51.462;6.698;2022-09-09T04:13:32;4.60;;;2.22;;
67861;SDS011;54665;51.462;6.698;2022-09-09T04:16:00;6.20;;;2.60;;
67861;SDS011;54665;51.462;6.698;2022-09-09T04:18:27;9.05;;;2.28;;
67861;SDS011;54665;51.462;6.698;2022-09-09T04:20:53;7.27;;;2.00;;
67861;SDS011;54665;51.462;6.698;2022-09-09T04:23:24;7.57;;;2.10;;
67861;SDS011;54665;51.462;6.698;2022-09-09T04:25:54;7.68;;;2.10;;
67861;SDS011;54665;51.462;6.698;2022-09-09T04:28:22;9.43;;;2.20;;
67861;SDS011;54665;51.462;6.698;2022-09-09T04:30:50;7.05;;;2.22;;
67861;SDS011;54665;51.462;6.698;2022-09-09T04:33:16;5.23;;;2.00;;
67861;SDS011;54665;51.462;6.698;2022-09-09T04:35:48;8.10;;;2.25;;
67861;SDS011;54665;51.462;6.698;2022-09-09T04:38:17;7.13;;;2.13;;
67861;SDS011;54665;51.462;6.698;2022-09-09T04:40:43;7.60;;;2.17;;
67861;SDS011;54665;51.462;6.698;2022-09-09T04:43:12;7.88;;;2.00;;
67861;SDS011;54665;51.462;6.698;2022-09-09T04:45:40;6.17;;;2.10;;
67861;SDS011;54665;51.462;6.698;2022-09-09T04:48:09;9.65;;;2.00;;
67861;SDS011;54665;51.462;6.698;2022-09-09T04:50:35;6.82;;;2.28;;
67861;SDS011;54665;51.462;6.698;2022-09-09T04:53:01;7.03;;;2.00;;
67861;SDS011;54665;51.462;6.698;2022-09-09T04:55:29;7.75;;;2.15;;
67861;SDS011;54665;51.462;6.698;2022-09-09T04:57:55;7.72;;;2.40;;
67861;SDS011;54665;51.462;6.698;2022-09-09T05:00:23;6.43;;;1.93;;
67861;SDS011;54665;51.462;6.698;2022-09-09T05:02:49;8.48;;;2.42;;
67861;SDS011;54665;51.462;6.698;2022-09-09T05:05:15;4.80;;;2.03;;
67861;SDS011;54665;51.462;6.698;2022-09-09T05:07:42;6.78;;;2.20;;
67861;SDS011;54665;51.462;6.698;2022-09-09T05:10:08;6.43;;;1.92;;
67861;SDS011;54665;51.462;6.698;2022-09-09T05:12:35;7.18;;;2.30;;
67861;SDS011;54665;51.462;6.698;2022-09-09T05:15:01;8.90;;;2.33;;
67861;SDS011;54665;51.462;6.698;2022-09-09T05:17:26;6.82;;;2.15;;
67861;SDS011;54665;51.462;6.698;2022-09-09T05:19:52;7.95;;;2.40;;
67861;SDS011;54665;51.462;6.698;2022-09-09T05:22:21;8.07;;;2.30;;
67861;SDS011;54665;51.462;6.698;2022-09-09T05:24:49;6.90;;;2.30;;
67861;SDS011;54665;51.462;6.698;2022-09-09T05:27:18;4.70;;;2.10;;
67861;SDS011;54665;51.462;6.698;2022-09-09T05:29:48;11.45;;;2.30;;
67861;SDS011;54665;51.462;6.698;2022-09-09T05:32:13;7.77;;;2.30;;
67861;SDS011;54665;51.462;6.698;2022-09-09T05:34:43;7.32;;;2.20;;
67861;SDS011;54665;51.462;6.698;2022-09-09T05:37:08;8.67;;;2.57;;
67861;SDS011;54665;51.462;6.698;2022-09-09T05:39:35;8.82;;;2.60;;
67861;SDS011;54665;51.462;6.698;2022-09-09T05:42:04;7.25;;;2.60;;
67861;SDS011;54665;51.462;6.698;2022-09-09T05:44:31;9.03;;;2.40;;
67861;SDS011;54665;51.462;6.698;2022-09-09T05:46:58;8.50;;;2.20;;
67861;SDS011;54665;51.462;6.698;2022-09-09T05:49:23;8.73;;;2.23;;
67861;SDS011;54665;51.462;6.698;2022-09-09T05:51:49;7.65;;;2.15;;
67861;SDS011;54665;51.462;6.698;2022-09-09T05:54:17;10.27;;;2.55;;
67861;SDS011;54665;51.462;6.698;2022-09-09T05:56:46;10.68;;;2.40;;
67861;SDS011;54665;51.462;6.698;2022-09-09T05:59:12;7.63;;;2.47;;
67861;SDS011;54665;51.462;6.698;2022-09-09T06:01:38;8.82;;;2.30;;
67861;SDS011;54665;51.462;6.698;2022-09-09T06:04:06;6.70;;;2.20;;
67861;SDS011;54665;51.462;6.698;2022-09-09T06:06:34;9.00;;;2.30;;
67861;SDS011;54665;51.462;6.698;2022-09-09T06:09:02;7.57;;;2.47;;
67861;SDS011;54665;51.462;6.698;2022-09-09T06:11:34;9.13;;;2.40;;
67861;SDS011;54665;51.462;6.698;2022-09-09T06:14:01;7.60;;;1.95;;
67861;SDS011;54665;51.462;6.698;2022-09-09T06:16:29;9.15;;;2.08;;
67861;SDS011;54665;51.462;6.698;2022-09-09T06:18:57;6.20;;;2.13;;
67861;SDS011;54665;51.462;6.698;2022-09-09T06:21:28;8.05;;;2.28;;
67861;SDS011;54665;51.462;6.698;2022-09-09T06:23:57;10.00;;;2.30;;
67861;SDS011;54665;51.462;6.698;2022-09-09T06:26:25;6.82;;;2.10;;
67861;SDS011;54665;51.462;6.698;2022-09-09T06:29:01;6.03;;;2.00;;
67861;SDS011;54665;51.462;6.698;2022-09-09T06:31:29;6.88;;;2.22;;
67861;SDS011;54665;51.462;6.698;2022-09-09T06:33:59;5.90;;;1.83;;
67861;SDS011;54665;51.462;6.698;2022-09-09T06:36:29;8.20;;;2.03;;
67861;SDS011;54665;51.462;6.698;2022-09-09T06:38:57;7.75;;;2.10;;
67861;SDS011;54665;51.462;6.698;2022-09-09T06:41:23;6.53;;;1.83;;
67861;SDS011;54665;51.462;6.698;2022-09-09T06:43:51;9.33;;;2.50;;
67861;SDS011;54665;51.462;6.698;2022-09-09T06:46:22;5.97;;;1.75;;
67861;SDS011;54665;51.462;6.698;2022-09-09T06:48:53;8.48;;;2.00;;
67861;SDS011;54665;51.462;6.698;2022-09-09T06:51:21;5.78;;;1.60;;
67861;SDS011;54665;51.462;6.698;2022-09-09T06:53:50;6.20;;;1.73;;
67861;SDS011;54665;51.462;6.698;2022-09-09T06:56:24;5.03;;;1.60;;
67861;SDS011;54665;51.462;6.698;2022-09-09T06:58:56;7.53;;;1.70;;
67861;SDS011;54665;51.462;6.698;2022-09-09T07:01:34;4.38;;;1.50;;
67861;SDS011;54665;51.462;6.698;2022-09-09T07:04:05;5.45;;;1.60;;
67861;SDS011;54665;51.462;6.698;2022-09-09T07:06:35;6.70;;;1.60;;
67861;SDS011;54665;51.462;6.698;2022-09-09T07:09:03;8.00;;;1.57;;
67861;SDS011;54665;51.462;6.698;2022-09-09T07:11:38;6.07;;;1.83;;
67861;SDS011;54665;51.462;6.698;2022-09-09T07:14:10;8.50;;;1.40;;
67861;SDS011;54665;51.462;6.698;2022-09-09T07:16:40;3.75;;;1.10;;
67861;SDS011;54665;51.462;6.698;2022-09-09T07:19:07;5.82;;;1.42;;
67861;SDS011;54665;51.462;6.698;2022-09-09T07:21:33;5.20;;;1.10;;
67861;SDS011;54665;51.462;6.698;2022-09-09T07:23:59;5.45;;;1.30;;
67861;SDS011;54665;51.462;6.698;2022-09-09T07:26:27;3.50;;;1.08;;
67861;SDS011;54665;51.462;6.698;2022-09-09T07:28:54;8.35;;;1.40;;
67861;SDS011;54665;51.462;6.698;2022-09-09T07:31:26;6.57;;;1.63;;
67861;SDS011;54665;51.462;6.698;2022-09-09T07:33:55;3.63;;;1.13;;
67861;SDS011;54665;51.462;6.698;2022-09-09T07:36:39;4.95;;;1.17;;
67861;SDS011;54665;51.462;6.698;2022-09-09T07:39:09;5.80;;;1.10;;
67861;SDS011;54665;51.462;6.698;2022-09-09T07:41:38;4.88;;;1.38;;
67861;SDS011;54665;51.462;6.698;2022-09-09T07:44:07;5.60;;;1.10;;
67861;SDS011;54665;51.462;6.698;2022-09-09T07:46:36;8.07;;;1.25;;
67861;SDS011;54665;51.462;6.698;2022-09-09T07:49:06;5.68;;;1.00;;
67861;SDS011;54665;51.462;6.698;2022-09-09T07:51:34;4.95;;;1.10;;
67861;SDS011;54665;51.462;6.698;2022-09-09T07:54:05;3.53;;;1.08;;
67861;SDS011;54665;51.462;6.698;2022-09-09T07:56:33;6.30;;;1.30;;
67861;SDS011;54665;51.462;6.698;2022-09-09T07:58:59;4.68;;;1.20;;
67861;SDS011;54665;51.462;6.698;2022-09-09T08:04:00;4.35;;;0.80;;
67861;SDS011;54665;51.462;6.698;2022-09-09T08:06:30;3.70;;;0.90;;
67861;SDS011;54665;51.462;6.698;2022-09-09T08:09:01;3.77;;;1.00;;
67861;SDS011;54665;51.462;6.698;2022-09-09T08:11:30;6.50;;;0.93;;
67861;SDS011;54665;51.462;6.698;2022-09-09T08:13:56;5.45;;;1.00;;
67861;SDS011;54665;51.462;6.698;2022-09-09T08:16:22;5.30;;;0.90;;
67861;SDS011;54665;51.462;6.698;2022-09-09T08:18:50;4.03;;;1.10;;
67861;SDS011;54665;51.462;6.698;2022-09-09T08:21:22;5.93;;;1.10;;
67861;SDS011;54665;51.462;6.698;2022-09-09T08:23:50;3.97;;;1.10;;
67861;SDS011;54665;51.462;6.698;2022-09-09T08:26:19;3.10;;;1.02;;
67861;SDS011;54665;51.462;6.698;2022-09-09T08:28:48;5.73;;;1.17;;
67861;SDS011;54665;51.462;6.698;2022-09-09T08:31:22;4.22;;;1.20;;
67861;SDS011;54665;51.462;6.698;2022-09-09T08:33:54;4.78;;;1.10;;
67861;SDS011;54665;51.462;6.698;2022-09-09T08:36:21;3.35;;;1.20;;
67861;SDS011;54665;51.462;6.698;2022-09-09T08:38:51;2.92;;;1.10;;
67861;SDS011;54665;51.462;6.698;2022-09-09T08:43:51;6.80;;;1.38;;
67861;SDS011;54665;51.462;6.698;2022-09-09T08:46:52;4.13;;;0.90;;
67861;SDS011;54665;51.462;6.698;2022-09-09T08:49:36;4.93;;;0.90;;
67861;SDS011;54665;51.462;6.698;2022-09-09T08:54:56;5.60;;;1.10;;
67861;SDS011;54665;51.462;6.698;2022-09-09T08:57:29;4.00;;;1.10;;
67861;SDS011;54665;51.462;6.698;2022-09-09T08:59:57;3.20;;;0.95;;
67861;SDS011;54665;51.462;6.698;2022-09-09T09:02:31;5.60;;;1.00;;
67861;SDS011;54665;51.462;6.698;2022-09-09T09:15:55;4.97;;;0.90;;
67861;SDS011;54665;51.462;6.698;2022-09-09T09:18:23;5.03;;;1.00;;
67861;SDS011;54665;51.462;6.698;2022-09-09T09:20:50;5.43;;;1.00;;
67861;SDS011;54665;51.462;6.698;2022-09-09T09:23:53;3.75;;;0.98;;
67861;SDS011;54665;51.462;6.698;2022-09-09T09:26:25;4.78;;;0.98;;
67861;SDS011;54665;51.462;6.698;2022-09-09T09:28:55;3.10;;;0.87;;
67861;SDS011;54665;51.462;6.698;2022-09-09T09:31:22;4.55;;;1.10;;
67861;SDS011;54665;51.462;6.698;2022-09-09T09:33:53;5.47;;;1.08;;
67861;SDS011;54665;51.462;6.698;2022-09-09T09:36:24;4.40;;;0.80;;
67861;SDS011;54665;51.462;6.698;2022-09-09T09:39:00;5.30;;;1.00;;
67861;SDS011;54665;51.462;6.698;2022-09-09T09:41:31;2.87;;;0.90;;
67861;SDS011;54665;51.462;6.698;2022-09-09T09:43:57;4.95;;;0.77;;
67861;SDS011;54665;51.462;6.698;2022-09-09T09:46:24;2.88;;;0.82;;
67861;SDS011;54665;51.462;6.698;2022-09-09T09:48:57;2.67;;;1.00;;
67861;SDS011;54665;51.462;6.698;2022-09-09T09:51:26;2.85;;;0.82;;
67861;SDS011;54665;51.462;6.698;2022-09-09T09:53:54;3.97;;;1.00;;
67861;SDS011;54665;51.462;6.698;2022-09-09T09:56:35;4.50;;;0.98;;
67861;SDS011;54665;51.462;6.698;2022-09-09T09:59:03;3.95;;;1.10;;
67861;SDS011;54665;51.462;6.698;2022-09-09T10:01:33;2.83;;;0.80;;
67861;SDS011;54665;51.462;6.698;2022-09-09T10:04:21;2.75;;;0.95;;
67861;SDS011;54665;51.462;6.698;2022-09-09T10:06:50;2.80;;;0.80;;
67861;SDS011;54665;51.462;6.698;2022-09-09T10:09:22;3.67;;;0.90;;
67861;SDS011;54665;51.462;6.698;2022-09-09T10:26:10;2.63;;;0.98;;
67861;SDS011;54665;51.462;6.698;2022-09-09T10:29:10;4.27;;;0.80;;
67861;SDS011;54665;51.462;6.698;2022-09-09T10:34:47;3.53;;;0.77;;
67861;SDS011;54665;51.462;6.698;2022-09-09T10:37:29;2.30;;;0.70;;
67861;SDS011;54665;51.462;6.698;2022-09-09T10:40:31;3.47;;;1.00;;
67861;SDS011;54665;51.462;6.698;2022-09-09T10:43:02;3.20;;;0.80;;
67861;SDS011;54665;51.462;6.698;2022-09-09T10:45:40;2.00;;;0.70;;
67861;SDS011;54665;51.462;6.698;2022-09-09T10:48:27;2.50;;;0.70;;
67861;SDS011;54665;51.462;6.698;2022-09-09T10:51:00;3.05;;;0.75;;
67861;SDS011;54665;51.462;6.698;2022-09-09T10:53:36;5.85;;;1.00;;
67861;SDS011;54665;51.462;6.698;2022-09-09T10:56:26;3.37;;;1.00;;
67861;SDS011;54665;51.462;6.698;2022-09-09T11:01:23;4.10;;;0.97;;
67861;SDS011;54665;51.462;6.698;2022-09-09T11:03:56;3.25;;;0.98;;
67861;SDS011;54665;51.462;6.698;2022-09-09T11:06:29;2.90;;;0.90;;
67861;SDS011;54665;51.462;6.698;2022-09-09T11:09:00;3.20;;;0.82;;
67861;SDS011;54665;51.462;6.698;2022-09-09T11:19:24;3.47;;;0.70;;
67861;SDS011;54665;51.462;6.698;2022-09-09T11:22:00;1.63;;;0.70;;
67861;SDS011;54665;51.462;6.698;2022-09-09T11:24:33;3.95;;;0.88;;
67861;SDS011;54665;51.462;6.698;2022-09-09T11:27:26;4.03;;;0.80;;
67861;SDS011;54665;51.462;6.698;2022-09-09T11:30:22;3.08;;;0.82;;
67861;SDS011;54665;51.462;6.698;2022-09-09T11:41:16;5.40;;;1.13;;
67861;SDS011;54665;51.462;6.698;2022-09-09T11:43:46;4.88;;;0.80;;
67861;SDS011;54665;51.462;6.698;2022-09-09T11:46:16;3.20;;;0.90;;
67861;SDS011;54665;51.462;6.698;2022-09-09T11:48:45;3.28;;;0.80;;
67861;SDS011;54665;51.462;6.698;2022-09-09T11:51:26;5.50;;;0.73;;
67861;SDS011;54665;51.462;6.698;2022-09-09T11:53:54;3.63;;;0.90;;
67861;SDS011;54665;51.462;6.698;2022-09-09T11:56:25;2.55;;;0.73;;
67861;SDS011;54665;51.462;6.698;2022-09-09T12:01:35;2.58;;;0.60;;
67861;SDS011;54665;51.462;6.698;2022-09-09T12:06:41;3.20;;;0.80;;
67861;SDS011;54665;51.462;6.698;2022-09-09T12:17:42;1.55;;;0.70;;
67861;SDS011;54665;51.462;6.698;2022-09-09T12:20:16;2.67;;;0.60;;
67861;SDS011;54665;51.462;6.698;2022-09-09T12:28:30;2.65;;;0.60;;
67861;SDS011;54665;51.462;6.698;2022-09-09T12:31:51;4.53;;;0.73;;
67861;SDS011;54665;51.462;6.698;2022-09-09T12:37:05;1.58;;;0.60;;
67861;SDS011;54665;51.462;6.698;2022-09-09T12:39:41;2.70;;;0.60;;
67861;SDS011;54665;51.462;6.698;2022-09-09T12:42:16;1.98;;;0.55;;
67861;SDS011;54665;51.462;6.698;2022-09-09T12:44:52;3.33;;;0.95;;
67861;SDS011;54665;51.462;6.698;2022-09-09T12:47:19;4.03;;;0.80;;
67861;SDS011;54665;51.462;6.698;2022-09-09T12:50:00;3.78;;;1.10;;
67861;SDS011;54665;51.462;6.698;2022-09-09T12:52:27;3.30;;;1.00;;
67861;SDS011;54665;51.462;6.698;2022-09-09T12:54:55;3.10;;;0.82;;
67861;SDS011;54665;51.462;6.698;2022-09-09T12:57:23;2.10;;;0.70;;
67861;SDS011;54665;51.462;6.698;2022-09-09T12:59:50;4.13;;;0.80;;
67861;SDS011;54665;51.462;6.698;2022-09-09T13:02:21;4.10;;;0.93;;
67861;SDS011;54665;51.462;6.698;2022-09-09T13:04:48;3.90;;;1.00;;
67861;SDS011;54665;51.462;6.698;2022-09-09T13:07:15;5.57;;;1.15;;
67861;SDS011;54665;51.462;6.698;2022-09-09T13:09:41;3.45;;;0.90;;
67861;SDS011;54665;51.462;6.698;2022-09-09T13:12:11;3.28;;;1.00;;
67861;SDS011;54665;51.462;6.698;2022-09-09T13:14:45;5.38;;;0.90;;
67861;SDS011;54665;51.462;6.698;2022-09-09T13:17:17;5.33;;;0.80;;
67861;SDS011;54665;51.462;6.698;2022-09-09T13:19:46;3.95;;;0.88;;
67861;SDS011;54665;51.462;6.698;2022-09-09T13:22:13;4.22;;;0.90;;
67861;SDS011;54665;51.462;6.698;2022-09-09T13:24:44;1.55;;;0.75;;
67861;SDS011;54665;51.462;6.698;2022-09-09T13:27:24;2.50;;;0.90;;
67861;SDS011;54665;51.462;6.698;2022-09-09T13:29:54;1.95;;;0.60;;
67861;SDS011;54665;51.462;6.698;2022-09-09T13:32:20;2.88;;;0.93;;
67861;SDS011;54665;51.462;6.698;2022-09-09T13:34:56;3.55;;;0.80;;
67861;SDS011;54665;51.462;6.698;2022-09-09T13:37:33;2.17;;;0.70;;
67861;SDS011;54665;51.462;6.698;2022-09-09T13:40:02;2.20;;;0.80;;
67861;SDS011;54665;51.462;6.698;2022-09-09T13:42:31;2.92;;;1.00;;
67861;SDS011;54665;51.462;6.698;2022-09-09T13:45:00;2.25;;;0.73;;
67861;SDS011;54665;51.462;6.698;2022-09-09T13:47:34;2.22;;;0.90;;
67861;SDS011;54665;51.462;6.698;2022-09-09T13:50:17;3.07;;;0.80;;
67861;SDS011;54665;51.462;6.698;2022-09-09T13:52:47;2.25;;;0.90;;
67861;SDS011;54665;51.462;6.698;2022-09-09T13:55:14;2.08;;;1.10;;
67861;SDS011;54665;51.462;6.698;2022-09-09T13:57:39;1.50;;;0.80;;
67861;SDS011;54665;51.462;6.698;2022-09-09T14:00:15;2.42;;;0.80;;
67861;SDS011;54665;51.462;6.698;2022-09-09T14:02:41;3.00;;;0.90;;
67861;SDS011;54665;51.462;6.698;2022-09-09T14:05:06;3.30;;;0.90;;
67861;SDS011;54665;51.462;6.698;2022-09-09T14:07:32;3.67;;;1.10;;
67861;SDS011;54665;51.462;6.698;2022-09-09T14:09:57;1.87;;;0.90;;
67861;SDS011;54665;51.462;6.698;2022-09-09T14:12:24;3.25;;;1.08;;
67861;SDS011;54665;51.462;6.698;2022-09-09T14:14:49;3.10;;;1.13;;
67861;SDS011;54665;51.462;6.698;2022-09-09T14:17:15;2.47;;;0.98;;
67861;SDS011;54665;51.462;6.698;2022-09-09T14:19:41;1.87;;;0.80;;
67861;SDS011;54665;51.462;6.698;2022-09-09T14:22:07;3.15;;;0.90;;
67861;SDS011;54665;51.462;6.698;2022-09-09T14:24:33;2.53;;;0.77;;
67861;SDS011;54665;51.462;6.698;2022-09-09T14:26:58;3.17;;;0.80;;
67861;SDS011;54665;51.462;6.698;2022-09-09T14:29:24;3.17;;;1.00;;
67861;SDS011;54665;51.462;6.698;2022-09-09T14:31:51;2.70;;;0.90;;
67861;SDS011;54665;51.462;6.698;2022-09-09T14:34:17;3.07;;;1.17;;
67861;SDS011;54665;51.462;6.698;2022-09-09T14:36:43;1.37;;;0.50;;
67861;SDS011;54665;51.462;6.698;2022-09-09T14:39:13;1.63;;;0.40;;
67861;SDS011;54665;51.462;6.698;2022-09-09T14:41:39;1.38;;;0.30;;
67861;SDS011;54665;51.462;6.698;2022-09-09T14:44:04;1.93;;;0.30;;
67861;SDS011;54665;51.462;6.698;2022-09-09T14:46:30;1.17;;;0.30;;
67861;SDS011;54665;51.462;6.698;2022-09-09T14:48:58;1.45;;;0.30;;
67861;SDS011;54665;51.462;6.698;2022-09-09T14:51:24;2.22;;;0.30;;
67861;SDS011;54665;51.462;6.698;2022-09-09T14:53:52;1.27;;;0.40;;
67861;SDS011;54665;51.462;6.698;2022-09-09T14:56:24;2.28;;;0.38;;
67861;SDS011;54665;51.462;6.698;2022-09-09T14:58:55;1.00;;;0.40;;
67861;SDS011;54665;51.462;6.698;2022-09-09T15:01:21;2.22;;;0.40;;
67861;SDS011;54665;51.462;6.698;2022-09-09T15:03:54;2.83;;;0.60;;
67861;SDS011;54665;51.462;6.698;2022-09-09T15:06:23;2.23;;;0.50;;
67861;SDS011;54665;51.462;6.698;2022-09-09T15:08:49;1.85;;;0.40;;
67861;SDS011;54665;51.462;6.698;2022-09-09T15:11:16;2.55;;;0.50;;
67861;SDS011;54665;51.462;6.698;2022-09-09T15:13:42;3.37;;;0.50;;
67861;SDS011;54665;51.462;6.698;2022-09-09T15:16:12;1.33;;;0.50;;
67861;SDS011;54665;51.462;6.698;2022-09-09T15:18:39;1.65;;;0.50;;
67861;SDS011;54665;51.462;6.698;2022-09-09T15:21:18;2.65;;;0.70;;
67861;SDS011;54665;51.462;6.698;2022-09-09T15:23:45;1.60;;;0.60;;
67861;SDS011;54665;51.462;6.698;2022-09-09T15:26:12;2.08;;;0.65;;
67861;SDS011;54665;51.462;6.698;2022-09-09T15:28:40;1.67;;;0.73;;
67861;SDS011;54665;51.462;6.698;2022-09-09T15:31:09;2.85;;;0.88;;
67861;SDS011;54665;51.462;6.698;2022-09-09T15:33:38;2.30;;;0.80;;
67861;SDS011;54665;51.462;6.698;2022-09-09T15:36:16;1.53;;;0.63;;
67861;SDS011;54665;51.462;6.698;2022-09-09T15:38:43;2.67;;;0.77;;
67861;SDS011;54665;51.462;6.698;2022-09-09T15:41:10;2.47;;;0.80;;
67861;SDS011;54665;51.462;6.698;2022-09-09T15:43:36;1.65;;;0.63;;
67861;SDS011;54665;51.462;6.698;2022-09-09T15:48:42;1.58;;;0.70;;
67861;SDS011;54665;51.462;6.698;2022-09-09T15:51:13;1.73;;;0.70;;
67861;SDS011;54665;51.462;6.698;2022-09-09T15:53:39;2.50;;;0.90;;
67861;SDS011;54665;51.462;6.698;2022-09-09T15:56:05;2.60;;;0.93;;
67861;SDS011;54665;51.462;6.698;2022-09-09T15:58:32;3.05;;;0.93;;
67861;SDS011;54665;51.462;6.698;2022-09-09T16:01:01;4.18;;;1.00;;
67861;SDS011;54665;51.462;6.698;2022-09-09T16:03:29;3.03;;;1.02;;
67861;SDS011;54665;51.462;6.698;2022-09-09T16:05:58;5.07;;;0.90;;
67861;SDS011;54665;51.462;6.698;2022-09-09T16:08:25;3.33;;;0.90;;
67861;SDS011;54665;51.462;6.698;2022-09-09T16:10:56;3.42;;;0.90;;
67861;SDS011;54665;51.462;6.698;2022-09-09T16:13:21;3.53;;;1.00;;
67861;SDS011;54665;51.462;6.698;2022-09-09T16:15:53;3.50;;;0.90;;
67861;SDS011;54665;51.462;6.698;2022-09-09T16:18:19;3.70;;;1.50;;
67861;SDS011;54665;51.462;6.698;2022-09-09T16:20:52;5.30;;;1.67;;
67861;SDS011;54665;51.462;6.698;2022-09-09T16:23:19;3.30;;;1.45;;
67861;SDS011;54665;51.462;6.698;2022-09-09T16:25:52;3.93;;;1.40;;
67861;SDS011;54665;51.462;6.698;2022-09-09T16:28:18;3.35;;;1.00;;
67861;SDS011;54665;51.462;6.698;2022-09-09T16:30:44;2.70;;;0.98;;
67861;SDS011;54665;51.462;6.698;2022-09-09T16:33:09;2.50;;;0.63;;
67861;SDS011;54665;51.462;6.698;2022-09-09T16:35:38;1.17;;;0.57;;
67861;SDS011;54665;51.462;6.698;2022-09-09T16:38:03;1.70;;;0.70;;
67861;SDS011;54665;51.462;6.698;2022-09-09T16:40:29;2.43;;;1.00;;
67861;SDS011;54665;51.462;6.698;2022-09-09T16:42:55;4.03;;;1.80;;
67861;SDS011;54665;51.462;6.698;2022-09-09T16:45:20;3.40;;;1.47;;
67861;SDS011;54665;51.462;6.698;2022-09-09T16:47:47;4.07;;;1.63;;
67861;SDS011;54665;51.462;6.698;2022-09-09T16:50:13;3.60;;;1.70;;
67861;SDS011;54665;51.462;6.698;2022-09-09T16:52:39;3.63;;;1.53;;
67861;SDS011;54665;51.462;6.698;2022-09-09T16:55:05;3.40;;;1.50;;
67861;SDS011;54665;51.462;6.698;2022-09-09T16:57:30;5.20;;;1.77;;
67861;SDS011;54665;51.462;6.698;2022-09-09T16:59:56;5.73;;;1.67;;
67861;SDS011;54665;51.462;6.698;2022-09-09T17:02:24;4.00;;;1.98;;
67861;SDS011;54665;51.462;6.698;2022-09-09T17:04:50;6.25;;;2.08;;
67861;SDS011;54665;51.462;6.698;2022-09-09T17:07:15;5.47;;;1.90;;
67861;SDS011;54665;51.462;6.698;2022-09-09T17:09:41;7.33;;;1.83;;